Time;durP1;ratioP1;P1;durP2;ratioP2;P2;SDS_P1;SDS_P2;PMS_P1;PMS_P2;Temp;Humidity;BMP_temperature;BMP_pressure;BME280_temperature;BME280_humidity;BME280_pressure;Samples;Min_cycle;Max_cycle;Signal;HPM_P1;HPM_P2
2021/04/17 00:01:57;;;;;;;12.85;10.15;;;7.80;95.70;;;;;;5073039;28;20056;-80
2021/04/17 00:04:24;;;;;;;13.02;10.05;;;7.70;95.90;;;;;;5072853;28;20035;-81
2021/04/17 00:06:51;;;;;;;11.68;9.65;;;7.70;95.90;;;;;;5073652;28;20036;-80
2021/04/17 00:09:29;;;;;;;14.63;9.80;;;7.50;96.20;;;;;;5072796;28;20024;-80
2021/04/17 00:12:01;;;;;;;13.88;10.25;;;7.50;96.40;;;;;;5072761;28;20060;-80
2021/04/17 00:14:30;;;;;;;15.57;10.98;;;7.50;96.30;;;;;;5073513;28;20079;-80
2021/04/17 00:16:56;;;;;;;15.52;11.57;;;7.50;96.30;;;;;;5073397;28;20491;-80
2021/04/17 00:19:22;;;;;;;13.07;10.05;;;7.50;96.30;;;;;;5072447;28;20101;-80
2021/04/17 00:21:48;;;;;;;16.65;10.82;;;7.60;96.10;;;;;;5073716;28;20547;-80
2021/04/17 00:24:14;;;;;;;13.55;11.02;;;7.60;96.10;;;;;;5073202;28;20399;-80
2021/04/17 00:26:40;;;;;;;16.13;10.40;;;7.60;96.10;;;;;;5072514;28;20029;-80
2021/04/17 00:29:06;;;;;;;16.00;11.23;;;7.60;96.10;;;;;;5072239;28;20501;-80
2021/04/17 00:31:33;;;;;;;13.15;10.18;;;7.60;96.30;;;;;;5073698;28;20027;-80
2021/04/17 00:33:59;;;;;;;14.95;10.90;;;7.40;96.40;;;;;;5067685;28;20079;-80
2021/04/17 00:36:25;;;;;;;14.65;10.73;;;7.50;96.50;;;;;;5070767;28;20030;-80
2021/04/17 00:38:51;;;;;;;15.48;11.02;;;7.70;96.20;;;;;;5069886;28;20041;-80
2021/04/17 00:41:17;;;;;;;15.45;10.90;;;7.70;95.70;;;;;;5070999;28;20032;-81
2021/04/17 00:43:43;;;;;;;16.13;10.85;;;7.60;95.60;;;;;;5066921;28;20115;-80
2021/04/17 00:46:09;;;;;;;18.33;11.77;;;7.60;95.70;;;;;;5069861;28;20050;-81
2021/04/17 00:51:58;;;;;;;15.90;10.57;;;7.70;95.50;;;;;;5070653;28;20027;-80
2021/04/17 00:54:25;;;;;;;345.85;203.52;;;7.60;95.30;;;;;;5067684;28;20032;-81
2021/04/17 00:56:51;;;;;;;384.70;241.32;;;7.80;95.80;;;;;;5068595;28;20044;-79
2021/04/17 00:59:17;;;;;;;117.50;72.00;;;7.80;95.30;;;;;;5054331;28;20025;-81
2021/04/17 01:01:43;;;;;;;23.92;17.85;;;7.80;95.00;;;;;;5068590;28;20025;-80
2021/04/17 01:04:22;;;;;;;16.35;12.88;;;7.70;94.60;;;;;;5068846;28;20478;-80
2021/04/17 01:06:52;;;;;;;18.48;11.63;;;7.70;94.40;;;;;;5068832;28;20666;-80
2021/04/17 01:09:29;;;;;;;15.90;10.52;;;7.60;94.30;;;;;;5068288;28;20108;-81
2021/04/17 01:12:01;;;;;;;13.68;10.23;;;7.50;94.40;;;;;;5068064;28;20443;-80
2021/04/17 01:14:29;;;;;;;14.20;9.82;;;7.30;94.80;;;;;;5068477;28;20028;-81
2021/04/17 01:16:56;;;;;;;14.57;9.88;;;7.40;95.00;;;;;;5067778;28;20429;-80
2021/04/17 01:19:40;;;;;;;15.70;9.80;;;7.30;95.00;;;;;;5068825;28;20449;-80
2021/04/17 01:22:20;;;;;;;12.18;9.95;;;7.30;94.80;;;;;;5068391;28;20037;-80
2021/04/17 01:24:55;;;;;;;17.30;9.05;;;7.40;94.50;;;;;;5069516;28;20048;-80
2021/04/17 01:27:24;;;;;;;15.93;9.50;;;7.40;94.30;;;;;;5065944;28;20124;-81
2021/04/17 01:29:51;;;;;;;11.93;9.50;;;7.30;94.30;;;;;;5067990;28;20044;-80
2021/04/17 01:32:17;;;;;;;16.42;9.43;;;7.30;94.30;;;;;;5066072;28;20032;-80
2021/04/17 01:34:45;;;;;;;13.23;9.82;;;7.30;94.20;;;;;;5069883;28;20111;-81
2021/04/17 01:37:11;;;;;;;15.35;9.30;;;7.30;94.30;;;;;;5065935;28;20612;-81
2021/04/17 01:39:39;;;;;;;11.80;8.95;;;7.30;94.40;;;;;;5069019;28;20025;-81
2021/04/17 01:42:09;;;;;;;11.50;8.27;;;7.20;94.30;;;;;;5065748;28;20025;-81
2021/04/17 01:44:41;;;;;;;11.63;8.68;;;7.30;94.20;;;;;;5069436;28;20060;-81
2021/04/17 01:47:12;;;;;;;11.40;8.18;;;7.30;94.00;;;;;;5066012;28;20025;-81
2021/04/17 01:49:50;;;;;;;11.60;8.52;;;7.30;94.00;;;;;;5070049;28;20032;-80
2021/04/17 01:52:27;;;;;;;11.77;8.98;;;7.30;94.10;;;;;;5067511;28;20020;-80
2021/04/17 01:54:54;;;;;;;11.52;8.63;;;7.30;94.00;;;;;;5068946;28;20028;-80
2021/04/17 01:57:23;;;;;;;10.10;8.00;;;7.40;93.60;;;;;;5068507;28;20024;-81
2021/04/17 01:59:49;;;;;;;9.73;7.75;;;7.40;93.20;;;;;;5064894;28;20521;-80
2021/04/17 02:02:16;;;;;;;9.73;7.72;;;7.40;92.80;;;;;;5069925;28;20042;-80
2021/04/17 02:04:42;;;;;;;9.75;7.55;;;7.50;92.80;;;;;;5070284;28;20116;-80
2021/04/17 02:07:07;;;;;;;10.20;7.88;;;7.50;92.90;;;;;;5073559;28;20119;-81
2021/04/17 02:09:33;;;;;;;12.52;8.57;;;7.50;93.00;;;;;;5074954;28;20029;-81
2021/04/17 02:11:59;;;;;;;13.02;7.72;;;7.40;93.10;;;;;;5076016;28;20472;-80
2021/04/17 02:14:25;;;;;;;10.90;7.70;;;7.40;93.20;;;;;;5074918;28;20032;-81
2021/04/17 02:17:02;;;;;;;10.05;7.60;;;7.30;93.10;;;;;;5076159;28;20029;-81
2021/04/17 02:19:27;;;;;;;9.82;7.22;;;7.20;93.00;;;;;;5076150;28;20502;-80
2021/04/17 02:21:57;;;;;;;10.20;7.30;;;7.30;92.60;;;;;;5076078;28;20036;-80
2021/04/17 02:24:26;;;;;;;8.80;7.90;;;7.30;92.40;;;;;;5075925;28;20044;-80
2021/04/17 02:26:53;;;;;;;9.27;7.05;;;7.40;92.20;;;;;;5074961;28;20029;-80
2021/04/17 02:29:19;;;;;;;10.02;7.45;;;7.30;92.20;;;;;;5076053;28;20025;-80
2021/04/17 02:31:45;;;;;;;10.80;7.43;;;7.30;92.30;;;;;;5074547;28;20523;-80
2021/04/17 02:34:11;;;;;;;10.15;7.75;;;7.20;92.70;;;;;;5075815;28;20032;-80
2021/04/17 02:36:37;;;;;;;10.60;7.20;;;7.20;92.90;;;;;;5074775;28;20024;-80
2021/04/17 02:39:03;;;;;;;11.77;8.52;;;7.10;93.00;;;;;;5074572;28;20029;-80
2021/04/17 02:41:30;;;;;;;11.88;7.85;;;7.00;93.20;;;;;;5074392;28;20107;-80
2021/04/17 02:43:56;;;;;;;11.02;7.57;;;7.00;93.30;;;;;;5075719;28;20032;-80
2021/04/17 02:46:22;;;;;;;11.68;8.02;;;7.00;93.40;;;;;;5074501;28;20027;-80
2021/04/17 02:48:48;;;;;;;9.80;7.25;;;7.00;93.20;;;;;;5074524;28;20025;-80
2021/04/17 02:51:13;;;;;;;12.68;7.90;;;7.00;93.10;;;;;;5074451;28;20051;-82
2021/04/17 02:53:39;;;;;;;12.52;8.25;;;7.00;92.70;;;;;;5075115;28;20506;-80
2021/04/17 02:56:05;;;;;;;10.05;7.53;;;7.10;92.60;;;;;;5074259;28;20131;-80
2021/04/17 02:58:31;;;;;;;14.27;7.85;;;7.10;92.60;;;;;;5070357;28;20027;-80
2021/04/17 03:00:57;;;;;;;13.63;7.53;;;7.00;92.80;;;;;;5075563;28;20028;-80
2021/04/17 03:03:24;;;;;;;9.70;7.80;;;7.00;92.90;;;;;;5075409;28;20025;-81
2021/04/17 03:05:49;;;;;;;11.68;7.70;;;7.10;93.10;;;;;;5074044;28;20021;-81
2021/04/17 03:08:15;;;;;;;10.88;7.63;;;7.10;93.00;;;;;;5074234;28;20459;-80
2021/04/17 03:10:41;;;;;;;9.82;7.28;;;7.00;92.90;;;;;;5073949;28;20028;-80
2021/04/17 03:13:07;;;;;;;10.93;7.35;;;7.00;92.90;;;;;;5075219;28;20067;-81
2021/04/17 03:15:33;;;;;;;9.43;7.95;;;7.00;93.00;;;;;;5073916;28;20029;-81
2021/04/17 03:17:59;;;;;;;10.38;8.10;;;7.00;92.90;;;;;;5074508;28;20020;-80
2021/04/17 03:20:25;;;;;;;10.48;7.45;;;7.00;93.00;;;;;;5073885;28;20387;-81
2021/04/17 03:22:51;;;;;;;13.70;7.60;;;7.00;93.20;;;;;;5073795;28;20029;-80
2021/04/17 03:25:17;;;;;;;9.93;7.70;;;7.10;93.00;;;;;;5073601;28;20048;-80
2021/04/17 03:27:44;;;;;;;9.43;7.68;;;7.00;93.10;;;;;;5073763;28;20022;-81
2021/04/17 03:30:12;;;;;;;10.80;7.72;;;7.00;93.20;;;;;;5073745;28;20051;-80
2021/04/17 03:32:38;;;;;;;10.90;7.53;;;7.00;93.40;;;;;;5073642;28;20025;-81
2021/04/17 03:35:07;;;;;;;13.88;8.52;;;6.90;93.30;;;;;;5073610;28;20142;-80
2021/04/17 03:37:33;;;;;;;10.20;7.50;;;6.90;93.40;;;;;;5073596;28;20055;-80
2021/04/17 03:39:58;;;;;;;13.02;7.93;;;6.90;93.40;;;;;;5074707;28;20052;-80
2021/04/17 03:42:24;;;;;;;14.23;7.70;;;6.90;93.70;;;;;;5074724;28;20074;-81
2021/04/17 03:44:50;;;;;;;12.25;8.77;;;6.80;93.70;;;;;;5073365;28;20078;-81
2021/04/17 03:47:16;;;;;;;11.45;8.70;;;6.80;93.80;;;;;;5073138;28;20029;-80
2021/04/17 03:49:42;;;;;;;16.40;8.40;;;6.80;93.60;;;;;;5074627;28;20021;-81
2021/04/17 03:52:07;;;;;;;12.75;8.45;;;6.80;93.80;;;;;;5074259;28;20112;-81
2021/04/17 03:54:33;;;;;;;12.55;8.80;;;6.80;93.70;;;;;;5074159;28;20037;-80
2021/04/17 03:57:00;;;;;;;10.13;7.65;;;6.80;93.60;;;;;;5074520;28;20025;-80
2021/04/17 03:59:25;;;;;;;11.93;7.40;;;6.80;93.60;;;;;;5072997;28;20024;-80
2021/04/17 04:01:51;;;;;;;13.55;7.88;;;6.80;93.60;;;;;;5074198;28;20436;-80
2021/04/17 04:04:16;;;;;;;12.60;8.73;;;6.70;93.80;;;;;;5074274;28;20173;-81
2021/04/17 04:06:42;;;;;;;12.90;8.20;;;6.60;94.10;;;;;;5072992;28;20024;-80
2021/04/17 04:09:08;;;;;;;10.70;7.90;;;6.60;94.30;;;;;;5074349;28;20027;-80
2021/04/17 04:11:34;;;;;;;13.02;7.57;;;6.60;94.20;;;;;;5072976;28;20028;-80
2021/04/17 04:13:59;;;;;;;12.07;7.85;;;6.60;94.20;;;;;;5074081;28;20386;-81
2021/04/17 04:16:25;;;;;;;15.05;9.07;;;6.70;94.30;;;;;;5074074;28;20027;-81
2021/04/17 04:18:52;;;;;;;16.38;8.63;;;6.70;94.40;;;;;;5072731;28;20123;-81
2021/04/17 04:21:18;;;;;;;12.85;8.57;;;6.70;94.20;;;;;;5073630;28;20082;-81
2021/04/17 04:23:43;;;;;;;10.57;7.80;;;6.70;94.30;;;;;;5073632;28;20024;-80
2021/04/17 04:26:09;;;;;;;12.40;8.70;;;6.80;94.10;;;;;;5073718;28;20129;-80
2021/04/17 04:28:35;;;;;;;16.58;9.25;;;6.80;93.70;;;;;;5072959;28;20083;-81
2021/04/17 04:31:00;;;;;;;11.38;8.43;;;6.70;93.60;;;;;;5073847;28;20028;-80
2021/04/17 04:33:26;;;;;;;12.57;8.13;;;6.70;94.00;;;;;;5073453;28;20375;-80
2021/04/17 04:35:52;;;;;;;12.43;9.00;;;6.80;93.80;;;;;;5073687;28;20075;-81
2021/04/17 04:38:18;;;;;;;14.52;7.78;;;6.70;93.60;;;;;;5072388;28;20024;-81
2021/04/17 04:40:44;;;;;;;13.60;8.80;;;6.70;93.60;;;;;;5073129;28;20441;-81
2021/04/17 04:43:10;;;;;;;15.48;8.93;;;6.80;93.40;;;;;;5073079;28;20056;-81
2021/04/17 04:45:36;;;;;;;14.18;8.93;;;6.70;93.50;;;;;;5072122;28;20016;-80
2021/04/17 04:48:03;;;;;;;13.65;8.77;;;6.70;93.50;;;;;;5073486;28;20478;-81
2021/04/17 04:50:29;;;;;;;14.07;8.80;;;6.70;93.60;;;;;;5073444;28;20146;-80
2021/04/17 04:52:55;;;;;;;15.02;9.02;;;6.70;93.70;;;;;;5073317;28;20652;-80
2021/04/17 04:55:20;;;;;;;12.88;9.07;;;6.70;93.70;;;;;;5071857;28;20024;-81
2021/04/17 04:57:46;;;;;;;12.13;9.60;;;6.70;93.50;;;;;;5073271;28;20040;-80
2021/04/17 05:00:12;;;;;;;13.18;8.70;;;6.70;93.70;;;;;;5072022;28;20501;-80
2021/04/17 05:02:38;;;;;;;15.98;9.38;;;6.80;93.70;;;;;;5071726;28;20117;-80
2021/04/17 05:05:05;;;;;;;12.50;8.45;;;6.80;93.10;;;;;;5073112;28;20519;-80
2021/04/17 05:07:31;;;;;;;13.18;9.00;;;6.90;93.30;;;;;;5071768;28;20039;-81
2021/04/17 05:09:56;;;;;;;15.32;9.68;;;7.00;93.40;;;;;;5073241;28;20470;-81
2021/04/17 05:12:22;;;;;;;9.15;7.80;;;6.90;93.70;;;;;;5073212;28;20499;-80
2021/04/17 05:14:48;;;;;;;12.50;8.20;;;7.00;93.30;;;;;;5071792;28;20029;-80
2021/04/17 05:17:13;;;;;;;14.00;8.63;;;7.00;93.40;;;;;;5073094;28;20024;-81
2021/04/17 05:19:41;;;;;;;12.30;8.57;;;7.10;93.10;;;;;;5071839;28;20124;-81
2021/04/17 05:22:07;;;;;;;13.35;8.40;;;7.10;93.30;;;;;;5071756;28;20024;-81
2021/04/17 05:24:32;;;;;;;11.30;7.97;;;7.10;93.00;;;;;;5071413;28;20036;-80
2021/04/17 05:26:59;;;;;;;13.35;8.18;;;7.20;93.00;;;;;;5071692;28;20016;-80
2021/04/17 05:29:25;;;;;;;11.52;8.63;;;7.20;92.90;;;;;;5071545;28;20032;-80
2021/04/17 05:31:51;;;;;;;12.35;8.65;;;7.30;92.50;;;;;;5072809;28;20119;-80
2021/04/17 05:34:17;;;;;;;13.05;8.57;;;7.30;92.70;;;;;;5072869;28;20043;-80
2021/04/17 05:36:43;;;;;;;12.07;8.43;;;7.30;92.40;;;;;;5071352;28;20033;-80
2021/04/17 05:39:08;;;;;;;18.55;9.30;;;7.40;92.00;;;;;;5072854;28;20077;-80
2021/04/17 05:41:34;;;;;;;11.45;8.40;;;7.50;91.60;;;;;;5075670;28;20394;-80
2021/04/17 05:44:00;;;;;;;17.33;8.68;;;7.50;91.80;;;;;;5075596;28;20028;-81
2021/04/17 05:46:26;;;;;;;11.50;7.95;;;7.60;91.30;;;;;;5074725;28;20070;-80
2021/04/17 05:48:51;;;;;;;13.10;9.32;;;7.70;91.10;;;;;;5075458;28;20484;-81
2021/04/17 05:51:18;;;;;;;14.52;9.13;;;7.70;91.40;;;;;;5075020;28;20032;-80
2021/04/17 05:53:43;;;;;;;14.25;8.60;;;7.80;91.30;;;;;;5072008;28;20025;-80
2021/04/17 05:56:09;;;;;;;12.65;8.50;;;7.80;91.60;;;;;;5075155;28;20181;-81
2021/04/17 05:58:35;;;;;;;14.13;8.45;;;7.90;91.40;;;;;;5075249;28;20483;-81
2021/04/17 06:01:01;;;;;;;13.30;8.38;;;7.90;91.00;;;;;;5077689;28;20036;-80
2021/04/17 06:03:27;;;;;;;13.20;8.68;;;8.00;90.70;;;;;;5075974;28;20395;-80
2021/04/17 06:05:54;;;;;;;12.68;8.57;;;8.10;90.90;;;;;;5075302;28;20028;-80
2021/04/17 06:08:21;;;;;;;12.02;8.15;;;8.20;90.80;;;;;;5075066;28;20475;-80
2021/04/17 06:10:46;;;;;;;11.32;8.43;;;8.20;90.90;;;;;;5075026;28;20074;-81
2021/04/17 06:13:12;;;;;;;11.65;8.25;;;8.20;90.90;;;;;;5076200;28;20017;-81
2021/04/17 06:15:38;;;;;;;10.98;8.05;;;8.30;91.00;;;;;;5076372;28;20022;-81
2021/04/17 06:18:04;;;;;;;11.02;7.90;;;8.30;90.70;;;;;;5074654;28;20372;-81
2021/04/17 06:20:29;;;;;;;17.25;8.63;;;8.40;90.50;;;;;;5074523;28;20016;-80
2021/04/17 06:22:56;;;;;;;14.68;8.73;;;8.50;90.50;;;;;;5075355;28;20381;-80
2021/04/17 06:25:22;;;;;;;13.15;7.80;;;8.50;90.60;;;;;;5075102;28;20740;-81
2021/04/17 06:27:48;;;;;;;16.48;9.02;;;8.70;90.70;;;;;;5080684;28;20028;-81
2021/04/17 06:30:17;;;;;;;10.93;7.30;;;8.70;91.00;;;;;;5074489;28;20408;-81
2021/04/17 06:32:43;;;;;;;14.45;8.27;;;9.00;92.10;;;;;;5089423;28;20036;-80
2021/04/17 06:35:09;;;;;;;9.45;6.78;;;9.10;89.80;;;;;;5094970;28;20024;-80
2021/04/17 06:37:35;;;;;;;10.18;7.00;;;9.10;82.80;;;;;;5093821;28;20024;-80
2021/04/17 06:40:01;;;;;;;11.65;7.38;;;9.20;82.50;;;;;;5080801;28;20020;-82
2021/04/17 06:42:31;;;;;;;10.55;6.70;;;9.40;80.60;;;;;;5069664;28;20028;-81
2021/04/17 06:45:00;;;;;;;14.48;7.75;;;9.50;80.50;;;;;;5076293;28;20106;-81
2021/04/17 06:47:26;;;;;;;11.48;7.28;;;9.60;77.70;;;;;;5066678;28;20028;-80
2021/04/17 06:49:53;;;;;;;12.57;7.63;;;9.60;74.30;;;;;;5062651;28;20078;-81
2021/04/17 06:52:21;;;;;;;12.50;7.07;;;9.70;74.00;;;;;;5072151;28;20562;-82
2021/04/17 06:54:49;;;;;;;16.00;8.68;;;9.80;75.60;;;;;;5072874;28;20028;-81
2021/04/17 06:57:15;;;;;;;14.02;8.18;;;9.80;75.00;;;;;;5071891;28;20036;-86
2021/04/17 06:59:42;;;;;;;10.27;7.13;;;9.80;73.00;;;;;;5071219;28;20036;-80
2021/04/17 07:02:14;;;;;;;14.00;8.55;;;10.00;71.30;;;;;;5072418;28;20111;-77
2021/04/17 07:04:40;;;;;;;;;;;10.00;72.70;;;;;;5084402;28;20057;-77
2021/04/17 07:07:06;;;;;;;12.02;6.45;;;10.10;72.10;;;;;;5063728;28;20682;-77
2021/04/17 07:09:32;;;;;;;10.75;6.60;;;10.20;70.30;;;;;;5068909;28;20032;-77
2021/04/17 07:11:57;;;;;;;10.10;6.32;;;10.30;69.90;;;;;;5065984;28;20025;-77
2021/04/17 07:14:23;;;;;;;10.45;6.63;;;10.30;67.50;;;;;;5081741;28;20027;-77
2021/04/17 07:16:59;;;;;;;8.65;6.10;;;10.40;69.00;;;;;;5071347;28;20067;-77
2021/04/17 07:19:45;;;;;;;8.10;5.82;;;10.40;67.90;;;;;;5063550;28;20047;-78
2021/04/17 07:22:25;;;;;;;8.18;6.13;;;10.50;69.70;;;;;;5061102;28;20025;-79
2021/04/17 07:25:11;;;;;;;7.90;6.10;;;10.60;71.70;;;;;;5070407;28;20135;-81
2021/04/17 07:27:40;;;;;;;6.80;5.85;;;10.70;70.70;;;;;;5064497;28;20025;-77
2021/04/17 07:30:14;;;;;;;12.00;5.65;;;10.70;68.60;;;;;;5055250;28;20475;-77
2021/04/17 07:32:45;;;;;;;9.00;5.70;;;10.80;72.40;;;;;;5070684;28;20025;-78
2021/04/17 07:35:18;;;;;;;9.15;6.63;;;10.80;72.10;;;;;;5070216;28;20358;-76
2021/04/17 07:37:46;;;;;;;9.43;5.68;;;10.90;69.10;;;;;;5073969;28;20097;-76
2021/04/17 07:40:21;;;;;;;13.73;6.70;;;10.90;67.90;;;;;;5090346;28;20546;-75
2021/04/17 07:42:50;;;;;;;9.95;6.45;;;11.00;66.60;;;;;;5072295;28;20386;-76
2021/04/17 07:45:22;;;;;;;7.72;6.72;;;11.00;67.40;;;;;;5068358;28;20032;-75
2021/04/17 07:47:48;;;;;;;7.55;5.80;;;11.00;65.90;;;;;;5069215;28;20028;-76
2021/04/17 07:50:17;;;;;;;14.10;6.97;;;11.00;65.50;;;;;;5082380;28;20025;-76
2021/04/17 07:52:42;;;;;;;8.48;6.25;;;11.10;66.30;;;;;;5047393;28;20112;-75
2021/04/17 07:55:11;;;;;;;11.70;6.03;;;11.20;62.70;;;;;;5069706;28;20127;-75
2021/04/17 07:57:44;;;;;;;10.27;6.30;;;11.20;63.30;;;;;;5070486;28;20056;-75
2021/04/17 08:00:13;;;;;;;13.63;6.10;;;11.20;62.60;;;;;;5070525;28;20636;-75
2021/04/17 08:02:43;;;;;;;9.80;6.43;;;11.30;66.40;;;;;;5069675;28;20045;-75
2021/04/17 08:05:11;;;;;;;11.13;6.88;;;11.30;64.90;;;;;;5071028;28;20029;-75
2021/04/17 08:07:37;;;;;;;7.97;5.40;;;11.20;61.90;;;;;;5069330;28;20032;-76
2021/04/17 08:10:03;;;;;;;6.82;5.43;;;11.30;66.70;;;;;;5069189;28;20356;-76
2021/04/17 08:12:33;;;;;;;7.68;5.80;;;11.30;61.30;;;;;;5070742;28;20017;-75
2021/04/17 08:14:58;;;;;;;7.80;5.80;;;11.30;62.80;;;;;;5068273;28;20024;-75
2021/04/17 08:17:24;;;;;;;8.75;6.85;;;11.30;66.50;;;;;;5069880;28;20498;-75
2021/04/17 08:19:56;;;;;;;8.32;6.35;;;11.40;65.50;;;;;;5070442;28;20103;-75
2021/04/17 08:22:22;;;;;;;10.32;6.90;;;11.50;62.60;;;;;;5061036;28;20127;-76
2021/04/17 08:24:48;;;;;;;8.45;6.15;;;11.50;62.60;;;;;;5069696;28;20036;-75
2021/04/17 08:27:14;;;;;;;6.53;5.93;;;11.50;61.60;;;;;;5069710;28;20031;-76
2021/04/17 08:29:56;;;;;;;8.50;5.65;;;11.50;63.10;;;;;;5070089;28;20024;-75
2021/04/17 08:32:44;;;;;;;7.88;6.35;;;11.50;62.50;;;;;;5052730;28;20115;-75
2021/04/17 08:35:15;;;;;;;8.15;6.28;;;11.60;64.30;;;;;;5067268;28;20079;-75
2021/04/17 08:37:56;;;;;;;8.20;6.28;;;11.60;64.20;;;;;;5068973;28;20024;-75
2021/04/17 08:40:39;;;;;;;7.05;5.75;;;11.70;62.70;;;;;;5068159;28;20074;-75
2021/04/17 08:43:33;;;;;;;11.05;6.47;;;11.70;61.20;;;;;;5068342;28;20068;-75
2021/04/17 08:46:15;;;;;;;10.10;6.82;;;11.60;60.60;;;;;;5069404;28;20459;-76
2021/04/17 08:48:47;;;;;;;;;;;11.70;61.00;;;;;;5070093;28;20028;-76
2021/04/17 08:51:22;;;;;;;8.80;6.53;;;11.80;61.90;;;;;;5069927;28;19904;-76
2021/04/17 08:54:12;;;;;;;10.98;6.10;;;11.80;61.10;;;;;;5068545;28;20170;-77
2021/04/17 08:56:54;;;;;;;7.13;5.90;;;11.80;60.30;;;;;;5068815;28;20049;-75
2021/04/17 08:59:23;;;;;;;6.78;5.97;;;11.80;60.20;;;;;;5063082;28;20017;-75
2021/04/17 09:01:58;;;;;;;7.65;5.93;;;11.90;62.00;;;;;;5067267;28;20036;-74
2021/04/17 09:04:26;;;;;;;8.38;6.38;;;11.90;61.10;;;;;;5067916;28;20036;-75
2021/04/17 09:06:54;;;;;;;7.30;6.25;;;11.80;61.50;;;;;;5070093;28;20016;-76
2021/04/17 09:09:24;;;;;;;11.35;6.72;;;11.90;61.40;;;;;;5069750;28;20524;-75
2021/04/17 09:12:13;;;;;;;8.70;6.57;;;12.00;62.20;;;;;;5069837;28;20028;-75
2021/04/17 09:14:42;;;;;;;8.02;6.38;;;12.00;63.40;;;;;;5068392;28;20086;-75
2021/04/17 09:17:29;;;;;;;11.27;6.10;;;12.00;61.30;;;;;;5069267;28;20033;-75
2021/04/17 09:19:54;;;;;;;8.00;5.93;;;12.10;63.40;;;;;;5067934;28;20742;-76
2021/04/17 09:22:27;;;;;;;15.48;6.30;;;12.20;62.90;;;;;;5067879;28;20032;-76
2021/04/17 09:24:57;;;;;;;8.90;6.00;;;12.20;62.30;;;;;;5069773;28;20123;-77
2021/04/17 09:27:34;;;;;;;11.55;5.93;;;12.30;61.00;;;;;;5073224;28;20109;-78
2021/04/17 09:30:19;;;;;;;8.63;6.25;;;12.40;62.70;;;;;;5070835;28;20076;-80
2021/04/17 09:32:46;;;;;;;11.30;6.88;;;12.30;59.90;;;;;;5069695;28;20071;-80
2021/04/17 09:35:15;;;;;;;8.10;6.28;;;12.40;60.10;;;;;;5070303;28;20452;-80
2021/04/17 09:37:46;;;;;;;9.77;5.82;;;12.40;59.70;;;;;;5063730;28;20715;-80
2021/04/17 09:40:12;;;;;;;9.60;6.95;;;12.50;60.30;;;;;;5065675;28;20058;-81
2021/04/17 09:42:38;;;;;;;7.38;6.10;;;12.40;59.80;;;;;;5070845;28;20033;-80
2021/04/17 09:45:07;;;;;;;14.93;6.80;;;12.40;60.60;;;;;;5076959;28;20401;-81
2021/04/17 09:47:33;;;;;;;8.32;5.82;;;12.50;63.00;;;;;;5089403;28;20053;-80
2021/04/17 09:49:59;;;;;;;10.10;6.50;;;12.70;63.40;;;;;;5076878;28;20115;-74
2021/04/17 09:52:26;;;;;;;11.07;8.57;;;12.60;59.60;;;;;;5088787;28;20459;-74
2021/04/17 09:54:58;;;;;;;32.80;21.85;;;12.70;61.30;;;;;;5083265;28;20024;-75
2021/04/17 09:57:24;;;;;;;130.07;83.35;;;12.80;58.20;;;;;;5076462;28;20043;-74
2021/04/17 09:59:57;;;;;;;16.30;12.20;;;12.80;57.70;;;;;;5076931;28;20032;-75
2021/04/17 10:02:38;;;;;;;12.15;8.20;;;12.90;60.30;;;;;;5065130;28;20082;-75
2021/04/17 10:05:04;;;;;;;8.70;6.45;;;13.00;60.00;;;;;;5090966;28;20024;-75
2021/04/17 10:07:53;;;;;;;7.35;6.50;;;12.90;57.90;;;;;;5064805;28;20028;-76
2021/04/17 10:10:20;;;;;;;6.35;5.75;;;13.00;58.70;;;;;;5064036;28;20025;-75
2021/04/17 10:12:51;;;;;;;9.98;6.85;;;13.00;58.60;;;;;;5065464;28;20024;-75
2021/04/17 10:15:19;;;;;;;10.07;7.00;;;13.00;58.90;;;;;;5058247;28;20718;-75
2021/04/17 10:17:46;;;;;;;8.98;6.68;;;13.10;60.00;;;;;;5045218;28;20036;-75
2021/04/17 10:20:13;;;;;;;10.55;7.10;;;13.00;59.10;;;;;;5063305;28;20058;-75
2021/04/17 10:22:40;;;;;;;9.43;7.65;;;13.00;59.10;;;;;;5065358;28;20029;-75
2021/04/17 10:25:30;;;;;;;9.23;6.85;;;13.20;58.90;;;;;;5064225;28;20498;-75
2021/04/17 10:27:56;;;;;;;7.85;7.03;;;13.30;60.80;;;;;;5054180;28;20052;-74
2021/04/17 10:30:22;;;;;;;8.52;7.00;;;13.40;59.40;;;;;;5066930;28;20056;-74
2021/04/17 10:32:47;;;;;;;9.93;7.78;;;13.30;56.70;;;;;;5067129;28;20490;-75
2021/04/17 10:35:15;;;;;;;10.30;6.72;;;13.40;58.10;;;;;;5064489;28;20029;-76
2021/04/17 10:37:47;;;;;;;8.80;7.13;;;13.40;59.60;;;;;;5066373;28;20033;-75
2021/04/17 10:40:18;;;;;;;7.07;6.28;;;13.50;58.50;;;;;;5067023;28;20081;-74
2021/04/17 10:42:53;;;;;;;7.65;6.93;;;13.60;58.70;;;;;;5067084;28;20101;-74
2021/04/17 10:45:23;;;;;;;11.13;7.38;;;13.80;60.10;;;;;;5066550;28;20054;-76
2021/04/17 10:48:14;;;;;;;9.80;7.57;;;13.80;58.50;;;;;;5068537;28;20039;-75
2021/04/17 10:50:42;;;;;;;11.75;7.53;;;14.00;59.20;;;;;;5065518;28;20498;-75
2021/04/17 10:53:15;;;;;;;10.98;7.60;;;14.00;58.40;;;;;;5066808;28;20019;-74
2021/04/17 10:55:45;;;;;;;10.77;7.90;;;14.00;56.10;;;;;;5063398;28;20028;-74
2021/04/17 10:58:23;;;;;;;10.02;7.45;;;14.00;57.20;;;;;;5072157;28;20119;-74
2021/04/17 11:01:16;;;;;;;10.88;8.68;;;14.00;56.30;;;;;;5074846;28;20672;-75
2021/04/17 11:03:44;;;;;;;8.52;7.32;;;14.20;55.10;;;;;;5068590;28;20114;-74
2021/04/17 11:06:14;;;;;;;13.95;9.65;;;14.30;56.00;;;;;;5064935;28;20036;-75
2021/04/17 11:08:41;;;;;;;12.60;8.15;;;14.40;57.00;;;;;;5067482;28;20074;-75
2021/04/17 11:11:12;;;;;;;10.43;7.60;;;14.30;55.10;;;;;;5066328;28;20086;-75
2021/04/17 11:13:43;;;;;;;11.52;7.85;;;14.40;57.80;;;;;;5058890;28;20483;-77
2021/04/17 11:16:15;;;;;;;9.30;7.55;;;14.40;56.20;;;;;;5048642;28;20025;-77
2021/04/17 11:18:44;;;;;;;10.18;7.63;;;14.50;56.20;;;;;;5048480;28;20033;-74
2021/04/17 11:21:15;;;;;;;12.27;8.30;;;14.50;56.10;;;;;;5057077;28;20055;-75
2021/04/17 11:23:49;;;;;;;12.30;7.80;;;14.60;55.50;;;;;;5068340;28;20033;-74
2021/04/17 11:26:27;;;;;;;10.60;7.90;;;14.60;55.60;;;;;;5065802;28;20036;-74
2021/04/17 11:28:59;;;;;;;20.02;8.88;;;14.50;54.90;;;;;;5069140;28;20020;-74
2021/04/17 11:31:30;;;;;;;12.30;8.55;;;14.40;54.30;;;;;;5069738;28;20038;-75
2021/04/17 11:33:58;;;;;;;12.38;8.52;;;14.60;56.40;;;;;;5076663;28;20031;-73
2021/04/17 11:36:27;;;;;;;10.13;8.82;;;14.80;56.20;;;;;;5056100;28;20474;-74
2021/04/17 11:38:54;;;;;;;11.25;8.43;;;14.90;53.40;;;;;;5064911;28;20036;-74
2021/04/17 11:41:21;;;;;;;8.95;7.85;;;14.90;54.50;;;;;;5061942;28;20032;-75
2021/04/17 11:43:47;;;;;;;10.23;8.27;;;15.00;55.00;;;;;;5062473;28;20035;-74
2021/04/17 11:46:14;;;;;;;9.65;7.78;;;14.90;54.90;;;;;;5062419;28;20061;-73
2021/04/17 11:48:41;;;;;;;9.50;7.80;;;15.10;55.70;;;;;;5076327;28;20024;-75
2021/04/17 11:51:12;;;;;;;9.13;7.80;;;15.10;55.10;;;;;;5078263;28;20024;-75
2021/04/17 11:53:38;;;;;;;9.35;8.25;;;15.10;52.30;;;;;;5078346;28;20041;-75
2021/04/17 11:56:10;;;;;;;15.18;8.65;;;15.00;53.60;;;;;;5075528;28;20024;-76
2021/04/17 11:58:36;;;;;;;10.75;8.50;;;15.00;55.30;;;;;;5061066;28;20044;-76
2021/04/17 12:01:02;;;;;;;11.23;8.45;;;14.90;54.60;;;;;;5066274;28;20033;-75
2021/04/17 12:03:28;;;;;;;10.18;8.20;;;14.90;54.60;;;;;;5063521;28;20028;-75
2021/04/17 12:05:55;;;;;;;12.75;8.43;;;14.80;54.70;;;;;;5064150;28;20025;-75
2021/04/17 12:08:22;;;;;;;11.05;8.38;;;14.90;53.90;;;;;;5068943;28;20069;-77
2021/04/17 12:10:48;;;;;;;9.80;8.10;;;14.90;53.30;;;;;;5067727;28;20048;-78
2021/04/17 12:13:26;;;;;;;11.18;9.25;;;15.00;54.80;;;;;;5069215;28;20423;-75
2021/04/17 12:15:52;;;;;;;11.45;8.82;;;15.10;54.90;;;;;;5067966;28;20043;-76
2021/04/17 12:19:04;;;;;;;12.27;9.50;;;15.30;56.20;;;;;;5068720;28;20033;-78
2021/04/17 12:22:17;;;;;;;10.25;8.40;;;15.40;55.20;;;;;;5067344;28;20730;-78
2021/04/17 12:25:26;;;;;;;11.35;8.13;;;15.40;55.30;;;;;;5066820;28;20047;-75
2021/04/17 12:27:52;;;;;;;11.20;9.45;;;15.10;53.60;;;;;;5066518;28;20028;-76
2021/04/17 12:30:41;;;;;;;10.95;8.63;;;15.10;55.70;;;;;;5066108;28;20029;-75
2021/04/17 12:33:08;;;;;;;13.45;8.48;;;15.10;55.90;;;;;;5045278;28;20029;-76
2021/04/17 12:35:35;;;;;;;11.13;8.88;;;15.10;54.80;;;;;;5062772;28;20028;-76
2021/04/17 12:38:04;;;;;;;12.38;8.70;;;15.20;53.10;;;;;;5067971;28;20415;-76
2021/04/17 12:40:30;;;;;;;12.50;8.35;;;15.50;55.40;;;;;;5066910;28;20103;-76
2021/04/17 12:43:01;;;;;;;10.98;8.55;;;15.60;54.30;;;;;;5067366;28;20100;-76
2021/04/17 12:45:27;;;;;;;12.00;9.35;;;15.60;53.50;;;;;;5065403;28;20032;-78
2021/04/17 12:47:53;;;;;;;12.80;9.02;;;15.60;53.30;;;;;;5068719;28;20024;-78
2021/04/17 12:50:19;;;;;;;11.27;8.98;;;15.60;52.30;;;;;;5067399;28;20482;-78
2021/04/17 12:52:44;;;;;;;12.20;9.13;;;15.60;53.00;;;;;;5068601;28;20020;-77
2021/04/17 12:55:11;;;;;;;9.77;8.07;;;15.50;51.90;;;;;;5065441;28;20429;-78
2021/04/17 12:57:36;;;;;;;11.45;8.55;;;15.50;52.70;;;;;;5067368;28;20025;-79